Flight Track Log - Related Links

Times and Time Zones

All times are in EDT time to prevent confusion due to time zone crossing. See the UAL3841 flight status page for this flight to view local times or setup timezone preferences in your user account.

Time Position Orientation Groundspeed Altitude Reporting Facility
EDT Latitude Longitude Course Direction KTS MPH feet Rate Location/Type
Fri 01:15:17 PM 41.9500 -87.9167 194° South 159 183 2,000  Level Chicago TRACON
Fri 01:16:23 PM 41.8833 -87.9167 180° South 205 236 3,600 1,320 Climbing Chicago TRACON
Fri 01:17:47 PM 41.7953 -87.9083 176° South 241 277 5,300 1,603 Climbing Chicago Center
Fri 01:18:00 PM 41.5720 -88.0112 191° South  Level Estimated
Fri 01:18:49 PM 41.7267 -87.9050 178° South 249 287 7,500  Level Chicago Center
Fri 01:19:00 PM 41.4696 -88.0371 192° South  Level Estimated
Fri 01:19:51 PM 41.6586 -87.9328 197° South 255 293 9,400  Level Chicago Center
Fri 01:20:00 PM 41.3668 -88.0603 190° South  Level FlightAware Approximate
Fri 01:20:53 PM 41.5881 -87.9600 196° South 261 300 11,200  Level Chicago Center
Fri 01:21:00 PM 41.2644 -88.0861 194° South  Level Estimated
Fri 01:21:55 PM 41.5117 -87.9900 196° South 281 323 12,900  Level Chicago Center
Fri 01:22:58 PM 41.4211 -88.0275 197° South 303 349 14,100 816 Climbing Chicago Center
Fri 01:24:00 PM 41.3328 -88.0556 193° South 331 381 14,600 677 Climbing Chicago Center
Fri 01:25:02 PM 41.2342 -88.0883 194° South 357 411 15,500 1,065 Climbing Chicago Center
Fri 01:26:04 PM 41.1131 -88.1233 192° South 369 425 16,800 1,065 Climbing Chicago Center
Fri 01:27:06 PM 41.0128 -88.1519 192° South 371 427 17,700 871 Climbing Chicago Center
Fri 01:28:08 PM 40.9119 -88.1808 192° South 372 428 18,600 919 Climbing Chicago Center
Fri 01:29:10 PM 40.8103 -88.2097 192° South 374 430 19,600 968 Climbing Chicago Center
Fri 01:30:12 PM 40.7081 -88.2383 192° South 377 434 20,600 1,065 Climbing Chicago Center
Fri 01:31:14 PM 40.5861 -88.2728 192° South 375 432 21,800 1,016 Climbing Chicago Center
Fri 01:32:16 PM 40.4839 -88.3014 192° South 376 433 22,700 912 Climbing Chicago Center
Fri 01:33:19 PM 40.3883 -88.3533 202° Southwest 372 428 23,700 960 Climbing Chicago Center
Fri 01:34:21 PM 40.2908 -88.3972 199° South 372 428 24,700 1,016 Climbing Chicago Center
Fri 01:35:23 PM 40.1808 -88.4431 198° South 371 427 25,800 1,008 Climbing Chicago Center
Fri 01:36:26 PM 40.0822 -88.4839 198° South 371 427 26,800 968 Climbing Chicago Center
Fri 01:37:27 PM 39.9836 -88.5242 197° South 370 426 27,800 976 Climbing Chicago Center
Fri 01:38:29 PM 39.8858 -88.5650 198° South 370 426 28,800 1,000 Climbing Chicago Center
Fri 01:39:15 PM 39.8064 -88.5986 198° South 369 425 29,600 1,009 Climbing Kansas City Center
Fri 01:40:16 PM 39.7089 -88.6392 198° South 368 423 30,600 976 Climbing Kansas City Center
Fri 01:41:18 PM 39.6114 -88.6789 197° South 367 422 31,600 683 Climbing Kansas City Center
Fri 01:42:19 PM 39.5125 -88.7192 197° South 370 426 32,000 240 Climbing Kansas City Center
Fri 01:43:23 PM 39.4042 -88.7633 197° South 386 444 32,100 532 Climbing Kansas City Center
Fri 01:44:23 PM 39.2981 -88.8069 198° South 397 457 33,100 934 Climbing Kansas City Center
Fri 01:45:25 PM 39.1894 -88.8319 190° South 397 457 34,000 1,008 Climbing Kansas City Center
Fri 01:46:28 PM 39.0578 -88.8575 189° South 398 458 35,200 960 Climbing Kansas City Center
Fri 01:47:30 PM 38.9489 -88.8789 189° South 396 456 36,000 384 Climbing Kansas City Center
Fri 01:48:33 PM 38.8408 -88.8997 189° South 392 451 36,000  Level Kansas City Center
Fri 01:49:35 PM 38.7269 -88.9225 189° South 402 463 36,000  Level Kansas City Center
Fri 01:50:36 PM 38.5908 -88.9503 189° South 419 482 36,000  Level Kansas City Center
Fri 01:51:39 PM 38.4742 -88.9717 188° South 424 488 36,000  Level Kansas City Center
Fri 01:52:40 PM 38.3519 -88.9964 189° South 416 479 36,000  Level Kansas City Center
Fri 01:53:44 PM 38.2414 -89.0158 188° South 413 475 36,000  Level Kansas City Center
Fri 01:54:44 PM 38.1250 -89.0400 189° South 418 481 36,000  Level Kansas City Center
Fri 01:55:47 PM 37.9981 -89.0650 189° South 419 482 36,000  Level Kansas City Center
Fri 01:56:48 PM 37.8828 -89.0869 189° South 419 482 36,000  Level Kansas City Center
Fri 01:57:51 PM 37.7769 -89.1042 187° South 415 478 36,000  Level Kansas City Center
Fri 01:58:53 PM 37.6606 -89.1256 188° South 418 481 36,000  Level Kansas City Center
Fri 01:59:55 PM 37.5211 -89.1522 189° South 421 484 36,000  Level Kansas City Center
Fri 02:00:56 PM 37.4047 -89.1739 188° South 423 487 36,000  Level Kansas City Center
Fri 02:01:48 PM 37.3139 -89.1989 192° South 424 488 36,000  Level Memphis Center
Fri 02:02:49 PM 37.1975 -89.2189 188° South 424 488 36,000  Level Memphis Center
Fri 02:03:48 PM 37.0811 -89.2389 188° South 429 494 36,000  Level Memphis Center
Fri 02:04:48 PM 36.9667 -89.2611 189° South 429 494 36,000  Level Memphis Center
Fri 02:05:48 PM 36.8500 -89.2836 189° South 429 494 36,000  Level Memphis Center
Fri 02:06:48 PM 36.7336 -89.3058 189° South 429 494 36,000  Level Memphis Center
Fri 02:07:48 PM 36.6192 -89.3256 188° South 429 494 36,000  Level Memphis Center
Fri 02:08:48 PM 36.4942 -89.3528 190° South 429 494 36,000  Level Memphis Center
Fri 02:09:49 PM 36.3694 -89.3672 185° South 446 513 36,000  Level Memphis Center
Fri 02:10:48 PM 36.2444 -89.3944 190° South 455 524 36,000  Level Memphis Center
Fri 02:11:48 PM 36.1300 -89.4139 188° South 442 509 36,000  Level Memphis Center
Fri 02:12:48 PM 36.0133 -89.4358 189° South 436 502 36,000  Level Memphis Center
Fri 02:13:48 PM 35.8947 -89.4550 187° South 431 496 36,000  Level Memphis Center
Fri 02:14:48 PM 35.7758 -89.4767 188° South 426 490 36,000  Level Memphis Center
Fri 02:15:48 PM 35.6781 -89.4931 188° South 426 490 36,000  Level Memphis Center
Fri 02:16:48 PM 35.5614 -89.5147 189° South 419 482 36,000  Level Memphis Center
Fri 02:17:48 PM 35.4428 -89.5364 188° South 429 494 36,000  Level Memphis Center
Fri 02:18:48 PM 35.3156 -89.5581 188° South 429 494 36,000  Level Memphis Center
Fri 02:19:48 PM 35.1947 -89.5794 188° South 430 495 36,000  Level Memphis Center
Fri 02:20:48 PM 35.0781 -89.5983 188° South 430 495 36,000  Level Memphis Center
Fri 02:21:48 PM 34.9592 -89.6172 187° South 430 495 36,000  Level Memphis Center
Fri 02:22:48 PM 34.8319 -89.6411 189° South 430 495 36,000 -250 Level Memphis Center
Fri 02:23:48 PM 34.7194 -89.6572 187° South 450 518 35,500 -750 Descending Memphis Center
Fri 02:24:48 PM 34.6008 -89.6833 190° South 450 518 34,500 -950 Descending Memphis Center
Fri 02:25:48 PM 34.4839 -89.7044 188° South 439 505 33,600 -950 Descending Memphis Center
Fri 02:26:48 PM 34.3631 -89.7281 189° South 439 505 32,600 -1,000 Descending Memphis Center
Fri 02:27:48 PM 34.2297 -89.7517 188° South 450 518 31,600 -950 Descending Memphis Center
Fri 02:28:48 PM 34.1044 -89.7753 189° South 450 518 30,700 -950 Descending Memphis Center
Fri 02:29:48 PM 33.9836 -89.7936 187° South 445 512 29,700 -1,000 Descending Memphis Center
Fri 02:30:48 PM 33.8606 -89.8169 189° South 450 518 28,700 -1,100 Descending Memphis Center
Fri 02:31:48 PM 33.7564 -89.8350 188° South 445 512 27,500 -1,750 Descending Memphis Center
Fri 02:32:48 PM 33.6311 -89.8558 188° South 445 512 25,200 -1,750 Descending Memphis Center
Fri 02:33:48 PM 33.5081 -89.8764 188° South 445 512 24,000 -600 Descending Memphis Center
Fri 02:34:48 PM 33.3850 -89.8969 188° South 445 512 24,000 -350 Level Memphis Center
Fri 02:35:48 PM 33.2661 -89.9175 188° South 445 512 23,300 -1,800 Descending Memphis Center
Fri 02:36:48 PM 33.1492 -89.9378 188° South 440 506 20,400 -2,850 Descending Memphis Center
Fri 02:37:48 PM 33.0386 -89.9583 189° South 428 493 17,600 -3,150 Descending Memphis Center
Fri 02:38:48 PM 32.9219 -89.9761 187° South 411 473 14,100 -3,200 Descending Memphis Center
Fri 02:39:48 PM 32.8258 -90.0111 197° South 385 443 11,200 -2,150 Descending Memphis Center
Fri 02:40:48 PM 32.7486 -90.0411 198° South 349 402 9,800 -1,700 Descending Memphis Center
Fri 02:41:48 PM 32.6800 -90.0708 200° South 294 338 7,800 -2,250 Descending Memphis Center
Fri 02:42:48 PM 32.6175 -90.0983 200° South 261 300 5,300 -2,250 Descending Memphis Center
Fri 02:43:48 PM 32.5589 -90.1256 201° Southwest 243 280 3,300 -1,250 Descending Memphis Center
Fri 02:44:48 PM 32.5028 -90.1528 202° Southwest 232 267 2,800 -550 Descending Memphis Center
Fri 02:45:48 PM 32.4464 -90.1358 166° South 212 244 2,200 -400 Descending Memphis Center
Fri 02:46:48 PM 32.4067 -90.1161 157° South 185 213 2,000 -450 Descending Memphis Center
Fri 02:47:48 PM 32.3731 -90.0992 157° South 153 176 1,300 -700 Descending Memphis Center
Fri 02:48:48 PM 32.3439 -90.0844 157° South 134 154 600 -700 Descending Memphis Center

Login

Don't have an account? Register now (free) for customized features, flight alerts, and more!